Visit the IPS Meteostar Home Page IPSM Barnes Municipal Airport FORECAST

Westfield, Massachusetts

29

35

32

32

28

45

45

42

13
13
20
13
25
35
32

3 miles away at Barnes Municipal Airport 14:53 GMT

Weather:

Clear

Wind:

CALM

Temperature:

29 ° F

Pressure:

30.18

Dew Point:

20 ° F

Relative Humidity:

65

Feels Like:

29 ° F

Visibility:

10 miles


Aviation Observations:

KBAF 101453Z 00000KT 10SM CLR M02/M07 A3013 RMK AO2 SLP212 I3000 T10171067 53014 =

National Weather Service Forecast:
Eastern Hampden

eastern hampden ma- including the city of springfield
1015 AM EST MON DEC 10 2018

THIS AFTERNOON

Sunny. Highs in the mid 30s. North winds around 5 mph.

TONIGHT

Mostly clear. Lows around 13. North winds around 5 mph.

TUESDAY

Sunny. Highs in the lower 30s. East winds around 5 mph, becoming southwest around 5 mph in the afternoon.

TUESDAY NIGHT

Partly cloudy. Lows around 20. Northwest winds around 5 mph.

WEDNESDAY

Mostly sunny. Highs in the lower 30s. North winds 5 to 10 mph.

WEDNESDAY NIGHT

Mostly clear. Lows 10 to 15.

THURSDAY

Mostly sunny. Cold with highs in the upper 20s.

THURSDAY NIGHT AND FRIDAY

Mostly cloudy. Lows in the mid 20s. highs in the mid 40s.

FRIDAY NIGHT AND SATURDAY

Mostly cloudy with a 50 percent chance of showers. Lows in the mid 30s. Highs in the mid 40s.

SATURDAY NIGHT AND SUNDAY

Mostly cloudy. Lows in the lower 30s. Highs in the lower 40s.


Visit the IPS Meteostar Home Page